Woodland, CA (95695)

9:09 AM PST on February 10, 2016 (GMT -0800)
KCAWOODL15 | | Change Station
CLOSE
Current Station
Personal Weather Station
Location: Woodland, CA
Elevation: 50 ft
Nearby Weather Stations

Elev 50 ft 38.66 °N, 121.77 °W | Updated 8 seconds ago

Partly Cloudy
Partly Cloudy
54.1 °F
Feels Like 54.1 °F
N
4.0
Wind Variable Wind from WNW
Gusts 8.0 mph

Today
High -- | Low -- °F
--% Chance of Precip.
Yesterday
High -- | Low -- °F
Precip. -- in
Pressure 30.30 in
Visibility 10.0 miles
Clouds Clear
Dew Point 48 °F
Humidity 80%
Rainfall 0.00 in
Snow Depth Not available.
7:04 AM 5:38 PM
Waxing Crescent, 6% visible
METAR KEDU 101655Z AUTO 34004KT 10SM CLR 10/08 A3030 RMK AO1
Pressure 30.30 in
Visibility 10.0 miles
Clouds Clear
Dew Point 48 °F
Humidity 80%
Rainfall 0.00 in
Snow Depth Not available.
7:04 AM 5:38 PM
Waxing Crescent, 6% visible
METAR KEDU 101655Z AUTO 34004KT 10SM CLR 10/08 A3030 RMK AO1

10-Day Weather Forecast

Almanac

Astronomy

Feb. 10, 2016 Rise Set
Actual Time
Civil Twilight
Nautical Twilight
Astronomical Twilight
Moon
Length of Visible Light
Length of Day
Tomorrow will be .
, % of the Moon is Illuminated

Today's Extremes

State Highs State Lows

Community

WunderPhotos

Upload Photos

1,891,892 photos uploaded!

WunderBlog® & News

Nearby

Air Quality

  Air Quality AQ Index Pollutant
Not available.

Snow Depth

Station Depth Elevation

Earthquake Activity

City Distance Mag. Time & Date
Minimum magnitude displayed is 2.5.

Coastal Water Temperatures

Place Temperature

Stations

Nearby Weather Stations

Station Location Temp. Windchill Dew Point Humidity Wind Precip. Elev Updated Type
                   

Watches & Warnings

There are currently no watches in effect.